sensor_id;sensor_type;location;lat;lon;timestamp;P1;durP1;ratioP1;P2;durP2;ratioP2
20363;SDS011;10340;53.664;9.908;2022-12-18T00:02:26;17.47;;;14.27;;
20363;SDS011;10340;53.664;9.908;2022-12-18T00:04:53;21.07;;;13.63;;
20363;SDS011;10340;53.664;9.908;2022-12-18T00:07:22;17.90;;;14.07;;
20363;SDS011;10340;53.664;9.908;2022-12-18T00:09:49;17.77;;;13.67;;
20363;SDS011;10340;53.664;9.908;2022-12-18T00:12:16;18.97;;;13.53;;
20363;SDS011;10340;53.664;9.908;2022-12-18T00:14:43;16.70;;;12.40;;
20363;SDS011;10340;53.664;9.908;2022-12-18T00:17:09;17.60;;;12.47;;
20363;SDS011;10340;53.664;9.908;2022-12-18T00:19:36;16.90;;;12.03;;
20363;SDS011;10340;53.664;9.908;2022-12-18T00:22:05;17.97;;;13.60;;
20363;SDS011;10340;53.664;9.908;2022-12-18T00:24:34;16.03;;;12.37;;
20363;SDS011;10340;53.664;9.908;2022-12-18T00:27:01;14.40;;;11.10;;
20363;SDS011;10340;53.664;9.908;2022-12-18T00:29:28;17.03;;;12.37;;
20363;SDS011;10340;53.664;9.908;2022-12-18T00:31:55;14.00;;;11.63;;
20363;SDS011;10340;53.664;9.908;2022-12-18T00:34:22;13.90;;;11.03;;
20363;SDS011;10340;53.664;9.908;2022-12-18T00:36:49;17.67;;;12.23;;
20363;SDS011;10340;53.664;9.908;2022-12-18T00:39:15;15.43;;;11.20;;
20363;SDS011;10340;53.664;9.908;2022-12-18T00:41:44;12.20;;;9.90;;
20363;SDS011;10340;53.664;9.908;2022-12-18T00:44:28;14.50;;;10.70;;
20363;SDS011;10340;53.664;9.908;2022-12-18T00:46:55;18.13;;;13.20;;
20363;SDS011;10340;53.664;9.908;2022-12-18T00:49:22;18.73;;;12.90;;
20363;SDS011;10340;53.664;9.908;2022-12-18T00:51:49;16.50;;;12.27;;
20363;SDS011;10340;53.664;9.908;2022-12-18T00:54:16;20.97;;;13.67;;
20363;SDS011;10340;53.664;9.908;2022-12-18T00:56:45;14.13;;;10.83;;
20363;SDS011;10340;53.664;9.908;2022-12-18T00:59:12;16.27;;;12.10;;
20363;SDS011;10340;53.664;9.908;2022-12-18T01:01:39;20.03;;;12.10;;
20363;SDS011;10340;53.664;9.908;2022-12-18T01:04:06;14.83;;;11.57;;
20363;SDS011;10340;53.664;9.908;2022-12-18T01:06:33;13.67;;;10.97;;
20363;SDS011;10340;53.664;9.908;2022-12-18T01:09:00;14.00;;;11.23;;
20363;SDS011;10340;53.664;9.908;2022-12-18T01:11:28;17.10;;;11.87;;
20363;SDS011;10340;53.664;9.908;2022-12-18T01:13:56;15.60;;;11.93;;
20363;SDS011;10340;53.664;9.908;2022-12-18T01:16:23;16.83;;;12.93;;
20363;SDS011;10340;53.664;9.908;2022-12-18T01:18:51;18.23;;;13.30;;
20363;SDS011;10340;53.664;9.908;2022-12-18T01:21:19;16.77;;;11.50;;
20363;SDS011;10340;53.664;9.908;2022-12-18T01:23:47;16.90;;;12.97;;
20363;SDS011;10340;53.664;9.908;2022-12-18T01:26:17;18.73;;;12.30;;
20363;SDS011;10340;53.664;9.908;2022-12-18T01:28:44;16.47;;;12.10;;
20363;SDS011;10340;53.664;9.908;2022-12-18T01:31:14;16.03;;;11.40;;
20363;SDS011;10340;53.664;9.908;2022-12-18T01:33:43;17.17;;;11.30;;
20363;SDS011;10340;53.664;9.908;2022-12-18T01:36:14;16.50;;;11.47;;
20363;SDS011;10340;53.664;9.908;2022-12-18T01:38:43;14.47;;;11.60;;
20363;SDS011;10340;53.664;9.908;2022-12-18T01:41:10;14.80;;;11.10;;
20363;SDS011;10340;53.664;9.908;2022-12-18T01:43:42;13.63;;;10.43;;
20363;SDS011;10340;53.664;9.908;2022-12-18T01:46:16;14.80;;;11.17;;
20363;SDS011;10340;53.664;9.908;2022-12-18T01:48:44;14.03;;;10.10;;
20363;SDS011;10340;53.664;9.908;2022-12-18T01:51:13;13.63;;;10.30;;
20363;SDS011;10340;53.664;9.908;2022-12-18T01:53:40;15.43;;;9.93;;
20363;SDS011;10340;53.664;9.908;2022-12-18T01:56:11;13.37;;;9.90;;
20363;SDS011;10340;53.664;9.908;2022-12-18T01:58:43;11.10;;;9.23;;
20363;SDS011;10340;53.664;9.908;2022-12-18T02:01:18;11.73;;;9.53;;
20363;SDS011;10340;53.664;9.908;2022-12-18T02:03:47;12.77;;;8.93;;
20363;SDS011;10340;53.664;9.908;2022-12-18T02:06:15;12.47;;;9.47;;
20363;SDS011;10340;53.664;9.908;2022-12-18T02:08:48;15.17;;;9.20;;
20363;SDS011;10340;53.664;9.908;2022-12-18T02:11:24;14.30;;;9.40;;
20363;SDS011;10340;53.664;9.908;2022-12-18T02:14:01;10.67;;;9.13;;
20363;SDS011;10340;53.664;9.908;2022-12-18T02:16:38;11.40;;;8.97;;
20363;SDS011;10340;53.664;9.908;2022-12-18T02:19:15;14.17;;;8.83;;
20363;SDS011;10340;53.664;9.908;2022-12-18T02:22:01;13.30;;;9.47;;
20363;SDS011;10340;53.664;9.908;2022-12-18T02:24:41;11.63;;;9.10;;
20363;SDS011;10340;53.664;9.908;2022-12-18T02:27:12;10.80;;;8.67;;
20363;SDS011;10340;53.664;9.908;2022-12-18T02:29:40;13.77;;;9.43;;
20363;SDS011;10340;53.664;9.908;2022-12-18T02:32:14;14.30;;;10.07;;
20363;SDS011;10340;53.664;9.908;2022-12-18T02:34:44;12.50;;;8.60;;
20363;SDS011;10340;53.664;9.908;2022-12-18T02:37:14;12.67;;;8.97;;
20363;SDS011;10340;53.664;9.908;2022-12-18T02:39:43;12.77;;;9.30;;
20363;SDS011;10340;53.664;9.908;2022-12-18T02:42:14;12.83;;;9.23;;
20363;SDS011;10340;53.664;9.908;2022-12-18T02:44:44;12.70;;;9.57;;
20363;SDS011;10340;53.664;9.908;2022-12-18T02:47:13;11.50;;;9.23;;
20363;SDS011;10340;53.664;9.908;2022-12-18T02:49:44;12.70;;;9.20;;
20363;SDS011;10340;53.664;9.908;2022-12-18T02:52:19;13.40;;;10.10;;
20363;SDS011;10340;53.664;9.908;2022-12-18T02:54:55;14.87;;;10.20;;
20363;SDS011;10340;53.664;9.908;2022-12-18T02:57:34;13.00;;;9.57;;
20363;SDS011;10340;53.664;9.908;2022-12-18T03:00:08;12.97;;;10.00;;
20363;SDS011;10340;53.664;9.908;2022-12-18T03:02:39;14.40;;;10.00;;
20363;SDS011;10340;53.664;9.908;2022-12-18T03:05:12;14.10;;;10.33;;
20363;SDS011;10340;53.664;9.908;2022-12-18T03:07:42;14.47;;;11.10;;
20363;SDS011;10340;53.664;9.908;2022-12-18T03:10:16;12.20;;;9.80;;
20363;SDS011;10340;53.664;9.908;2022-12-18T03:12:50;15.23;;;10.63;;
20363;SDS011;10340;53.664;9.908;2022-12-18T03:15:21;15.20;;;10.90;;
20363;SDS011;10340;53.664;9.908;2022-12-18T03:17:52;16.37;;;9.57;;
20363;SDS011;10340;53.664;9.908;2022-12-18T03:20:22;13.17;;;9.37;;
20363;SDS011;10340;53.664;9.908;2022-12-18T03:22:53;11.67;;;8.87;;
20363;SDS011;10340;53.664;9.908;2022-12-18T03:25:25;13.67;;;10.33;;
20363;SDS011;10340;53.664;9.908;2022-12-18T03:27:55;13.60;;;10.00;;
20363;SDS011;10340;53.664;9.908;2022-12-18T03:30:26;13.90;;;9.50;;
20363;SDS011;10340;53.664;9.908;2022-12-18T03:32:56;11.23;;;8.63;;
20363;SDS011;10340;53.664;9.908;2022-12-18T03:35:29;11.77;;;8.87;;
20363;SDS011;10340;53.664;9.908;2022-12-18T03:38:01;10.57;;;8.10;;
20363;SDS011;10340;53.664;9.908;2022-12-18T03:40:29;17.40;;;10.90;;
20363;SDS011;10340;53.664;9.908;2022-12-18T03:43:03;12.03;;;9.20;;
20363;SDS011;10340;53.664;9.908;2022-12-18T03:45:37;13.43;;;9.70;;
20363;SDS011;10340;53.664;9.908;2022-12-18T03:48:09;11.20;;;9.87;;
20363;SDS011;10340;53.664;9.908;2022-12-18T03:50:44;15.97;;;9.57;;
20363;SDS011;10340;53.664;9.908;2022-12-18T03:53:21;10.90;;;8.20;;
20363;SDS011;10340;53.664;9.908;2022-12-18T03:55:55;11.93;;;8.80;;
20363;SDS011;10340;53.664;9.908;2022-12-18T03:58:26;11.73;;;8.60;;
20363;SDS011;10340;53.664;9.908;2022-12-18T04:00:56;9.80;;;8.07;;
20363;SDS011;10340;53.664;9.908;2022-12-18T04:03:26;10.37;;;8.37;;
20363;SDS011;10340;53.664;9.908;2022-12-18T04:05:57;10.70;;;8.03;;
20363;SDS011;10340;53.664;9.908;2022-12-18T04:08:26;11.03;;;8.67;;
20363;SDS011;10340;53.664;9.908;2022-12-18T04:10:54;10.90;;;8.50;;
20363;SDS011;10340;53.664;9.908;2022-12-18T04:13:22;10.53;;;9.07;;
20363;SDS011;10340;53.664;9.908;2022-12-18T04:15:50;10.17;;;8.50;;
20363;SDS011;10340;53.664;9.908;2022-12-18T04:18:18;13.47;;;8.53;;
20363;SDS011;10340;53.664;9.908;2022-12-18T04:20:45;11.10;;;7.57;;
20363;SDS011;10340;53.664;9.908;2022-12-18T04:23:12;11.13;;;8.97;;
20363;SDS011;10340;53.664;9.908;2022-12-18T04:25:39;11.83;;;8.23;;
20363;SDS011;10340;53.664;9.908;2022-12-18T04:28:06;10.57;;;7.63;;
20363;SDS011;10340;53.664;9.908;2022-12-18T04:30:33;12.40;;;8.00;;
20363;SDS011;10340;53.664;9.908;2022-12-18T04:33:01;11.63;;;8.63;;
20363;SDS011;10340;53.664;9.908;2022-12-18T04:35:28;10.97;;;7.83;;
20363;SDS011;10340;53.664;9.908;2022-12-18T04:37:55;11.27;;;8.60;;
20363;SDS011;10340;53.664;9.908;2022-12-18T04:40:22;12.23;;;8.33;;
20363;SDS011;10340;53.664;9.908;2022-12-18T04:42:49;8.40;;;7.50;;
20363;SDS011;10340;53.664;9.908;2022-12-18T04:45:16;9.53;;;7.80;;
20363;SDS011;10340;53.664;9.908;2022-12-18T04:47:43;9.23;;;8.03;;
20363;SDS011;10340;53.664;9.908;2022-12-18T04:50:11;12.03;;;8.57;;
20363;SDS011;10340;53.664;9.908;2022-12-18T04:52:38;12.03;;;7.97;;
20363;SDS011;10340;53.664;9.908;2022-12-18T04:55:05;11.90;;;8.90;;
20363;SDS011;10340;53.664;9.908;2022-12-18T04:57:32;11.03;;;7.70;;
20363;SDS011;10340;53.664;9.908;2022-12-18T04:59:59;10.30;;;7.50;;
20363;SDS011;10340;53.664;9.908;2022-12-18T05:02:26;9.00;;;7.40;;
20363;SDS011;10340;53.664;9.908;2022-12-18T05:04:53;10.27;;;7.97;;
20363;SDS011;10340;53.664;9.908;2022-12-18T05:07:21;12.13;;;7.73;;
20363;SDS011;10340;53.664;9.908;2022-12-18T05:09:49;10.77;;;7.43;;
20363;SDS011;10340;53.664;9.908;2022-12-18T05:12:15;14.63;;;8.77;;
20363;SDS011;10340;53.664;9.908;2022-12-18T05:14:42;10.70;;;7.73;;
20363;SDS011;10340;53.664;9.908;2022-12-18T05:17:09;10.57;;;8.83;;
20363;SDS011;10340;53.664;9.908;2022-12-18T05:19:36;10.17;;;8.20;;
20363;SDS011;10340;53.664;9.908;2022-12-18T05:22:03;10.77;;;8.27;;
20363;SDS011;10340;53.664;9.908;2022-12-18T05:24:32;10.00;;;7.60;;
20363;SDS011;10340;53.664;9.908;2022-12-18T05:26:59;9.83;;;7.67;;
20363;SDS011;10340;53.664;9.908;2022-12-18T05:29:26;10.73;;;8.40;;
20363;SDS011;10340;53.664;9.908;2022-12-18T05:31:53;11.43;;;8.67;;
20363;SDS011;10340;53.664;9.908;2022-12-18T05:34:20;12.00;;;8.33;;
20363;SDS011;10340;53.664;9.908;2022-12-18T05:36:47;13.77;;;8.57;;
20363;SDS011;10340;53.664;9.908;2022-12-18T05:39:14;11.20;;;8.20;;
20363;SDS011;10340;53.664;9.908;2022-12-18T05:41:42;11.47;;;8.53;;
20363;SDS011;10340;53.664;9.908;2022-12-18T05:44:09;11.10;;;8.83;;
20363;SDS011;10340;53.664;9.908;2022-12-18T05:46:36;13.13;;;8.37;;
20363;SDS011;10340;53.664;9.908;2022-12-18T05:49:03;12.90;;;9.53;;
20363;SDS011;10340;53.664;9.908;2022-12-18T05:51:30;12.07;;;8.57;;
20363;SDS011;10340;53.664;9.908;2022-12-18T05:53:57;12.03;;;8.03;;
20363;SDS011;10340;53.664;9.908;2022-12-18T05:56:24;11.40;;;8.50;;
20363;SDS011;10340;53.664;9.908;2022-12-18T05:58:53;12.07;;;7.30;;
20363;SDS011;10340;53.664;9.908;2022-12-18T06:01:23;9.80;;;8.37;;
20363;SDS011;10340;53.664;9.908;2022-12-18T06:03:51;12.47;;;9.03;;
20363;SDS011;10340;53.664;9.908;2022-12-18T06:06:19;12.03;;;8.63;;
20363;SDS011;10340;53.664;9.908;2022-12-18T06:08:47;12.33;;;8.83;;
20363;SDS011;10340;53.664;9.908;2022-12-18T06:11:16;11.50;;;8.43;;
20363;SDS011;10340;53.664;9.908;2022-12-18T06:13:44;10.63;;;8.27;;
20363;SDS011;10340;53.664;9.908;2022-12-18T06:16:13;11.93;;;8.60;;
20363;SDS011;10340;53.664;9.908;2022-12-18T06:18:40;10.13;;;8.40;;
20363;SDS011;10340;53.664;9.908;2022-12-18T06:21:07;11.13;;;7.83;;
20363;SDS011;10340;53.664;9.908;2022-12-18T06:23:34;12.40;;;8.80;;
20363;SDS011;10340;53.664;9.908;2022-12-18T06:26:03;12.03;;;8.93;;
20363;SDS011;10340;53.664;9.908;2022-12-18T06:28:31;11.70;;;8.73;;
20363;SDS011;10340;53.664;9.908;2022-12-18T06:30:58;10.60;;;8.57;;
20363;SDS011;10340;53.664;9.908;2022-12-18T06:33:27;13.20;;;9.73;;
20363;SDS011;10340;53.664;9.908;2022-12-18T06:35:54;10.73;;;8.60;;
20363;SDS011;10340;53.664;9.908;2022-12-18T06:38:25;9.83;;;8.47;;
20363;SDS011;10340;53.664;9.908;2022-12-18T06:40:53;11.67;;;8.57;;
20363;SDS011;10340;53.664;9.908;2022-12-18T06:43:20;13.23;;;9.23;;
20363;SDS011;10340;53.664;9.908;2022-12-18T06:45:46;12.57;;;8.97;;
20363;SDS011;10340;53.664;9.908;2022-12-18T06:48:17;12.37;;;8.83;;
20363;SDS011;10340;53.664;9.908;2022-12-18T06:50:46;10.60;;;9.53;;
20363;SDS011;10340;53.664;9.908;2022-12-18T06:53:13;12.43;;;8.73;;
20363;SDS011;10340;53.664;9.908;2022-12-18T06:55:40;11.83;;;9.03;;
20363;SDS011;10340;53.664;9.908;2022-12-18T06:58:07;13.17;;;10.00;;
20363;SDS011;10340;53.664;9.908;2022-12-18T07:00:35;13.27;;;9.53;;
20363;SDS011;10340;53.664;9.908;2022-12-18T07:03:02;14.97;;;10.47;;
20363;SDS011;10340;53.664;9.908;2022-12-18T07:05:29;15.80;;;9.93;;
20363;SDS011;10340;53.664;9.908;2022-12-18T07:07:57;13.93;;;9.23;;
20363;SDS011;10340;53.664;9.908;2022-12-18T07:10:24;16.23;;;10.50;;
20363;SDS011;10340;53.664;9.908;2022-12-18T07:12:52;11.07;;;9.33;;
20363;SDS011;10340;53.664;9.908;2022-12-18T07:15:19;12.40;;;9.43;;
20363;SDS011;10340;53.664;9.908;2022-12-18T07:17:45;12.10;;;9.10;;
20363;SDS011;10340;53.664;9.908;2022-12-18T07:20:12;12.57;;;10.13;;
20363;SDS011;10340;53.664;9.908;2022-12-18T07:22:39;13.77;;;9.47;;
20363;SDS011;10340;53.664;9.908;2022-12-18T07:25:08;11.50;;;8.97;;
20363;SDS011;10340;53.664;9.908;2022-12-18T07:27:35;12.57;;;9.23;;
20363;SDS011;10340;53.664;9.908;2022-12-18T07:30:02;10.57;;;8.37;;
20363;SDS011;10340;53.664;9.908;2022-12-18T07:32:30;10.10;;;8.53;;
20363;SDS011;10340;53.664;9.908;2022-12-18T07:34:57;10.87;;;7.93;;
20363;SDS011;10340;53.664;9.908;2022-12-18T07:37:24;10.33;;;9.03;;
20363;SDS011;10340;53.664;9.908;2022-12-18T07:39:51;10.00;;;7.50;;
20363;SDS011;10340;53.664;9.908;2022-12-18T07:42:19;14.40;;;9.30;;
20363;SDS011;10340;53.664;9.908;2022-12-18T07:44:59;12.00;;;8.63;;
20363;SDS011;10340;53.664;9.908;2022-12-18T07:47:27;11.80;;;8.57;;
20363;SDS011;10340;53.664;9.908;2022-12-18T07:49:54;10.73;;;8.57;;
20363;SDS011;10340;53.664;9.908;2022-12-18T07:52:21;9.33;;;7.93;;
20363;SDS011;10340;53.664;9.908;2022-12-18T07:54:48;11.07;;;8.10;;
20363;SDS011;10340;53.664;9.908;2022-12-18T07:57:16;11.00;;;9.13;;
20363;SDS011;10340;53.664;9.908;2022-12-18T07:59:44;11.03;;;9.30;;
20363;SDS011;10340;53.664;9.908;2022-12-18T08:02:11;13.47;;;9.70;;
20363;SDS011;10340;53.664;9.908;2022-12-18T08:04:38;13.20;;;9.87;;
20363;SDS011;10340;53.664;9.908;2022-12-18T08:07:05;10.67;;;9.00;;
20363;SDS011;10340;53.664;9.908;2022-12-18T08:09:32;13.93;;;9.27;;
20363;SDS011;10340;53.664;9.908;2022-12-18T08:11:59;13.77;;;10.10;;
20363;SDS011;10340;53.664;9.908;2022-12-18T08:14:26;14.10;;;10.80;;
20363;SDS011;10340;53.664;9.908;2022-12-18T08:16:54;13.87;;;9.13;;
20363;SDS011;10340;53.664;9.908;2022-12-18T08:19:22;13.37;;;10.30;;
20363;SDS011;10340;53.664;9.908;2022-12-18T08:21:48;13.87;;;9.87;;
20363;SDS011;10340;53.664;9.908;2022-12-18T08:24:15;11.73;;;9.97;;
20363;SDS011;10340;53.664;9.908;2022-12-18T08:26:42;13.37;;;11.10;;
20363;SDS011;10340;53.664;9.908;2022-12-18T08:29:09;15.13;;;9.87;;
20363;SDS011;10340;53.664;9.908;2022-12-18T08:31:36;13.13;;;10.37;;
20363;SDS011;10340;53.664;9.908;2022-12-18T08:34:05;13.57;;;10.33;;
20363;SDS011;10340;53.664;9.908;2022-12-18T08:36:32;15.00;;;10.23;;
20363;SDS011;10340;53.664;9.908;2022-12-18T08:38:59;14.03;;;11.50;;
20363;SDS011;10340;53.664;9.908;2022-12-18T08:41:26;17.23;;;10.17;;
20363;SDS011;10340;53.664;9.908;2022-12-18T08:43:53;14.77;;;11.10;;
20363;SDS011;10340;53.664;9.908;2022-12-18T08:46:38;16.23;;;11.37;;
20363;SDS011;10340;53.664;9.908;2022-12-18T08:49:08;15.03;;;10.83;;
20363;SDS011;10340;53.664;9.908;2022-12-18T08:51:36;17.23;;;11.67;;
20363;SDS011;10340;53.664;9.908;2022-12-18T08:54:04;14.50;;;10.97;;
20363;SDS011;10340;53.664;9.908;2022-12-18T08:56:31;14.10;;;11.03;;
20363;SDS011;10340;53.664;9.908;2022-12-18T08:58:59;15.90;;;10.97;;
20363;SDS011;10340;53.664;9.908;2022-12-18T09:01:26;15.90;;;12.57;;
20363;SDS011;10340;53.664;9.908;2022-12-18T09:03:53;20.63;;;12.63;;
20363;SDS011;10340;53.664;9.908;2022-12-18T09:06:22;15.20;;;10.77;;
20363;SDS011;10340;53.664;9.908;2022-12-18T09:08:49;13.50;;;11.60;;
20363;SDS011;10340;53.664;9.908;2022-12-18T09:11:18;21.07;;;12.77;;
20363;SDS011;10340;53.664;9.908;2022-12-18T09:13:47;15.97;;;11.90;;
20363;SDS011;10340;53.664;9.908;2022-12-18T09:16:14;17.70;;;12.23;;
20363;SDS011;10340;53.664;9.908;2022-12-18T09:18:42;16.87;;;12.67;;
20363;SDS011;10340;53.664;9.908;2022-12-18T09:21:12;16.40;;;11.87;;
20363;SDS011;10340;53.664;9.908;2022-12-18T09:23:42;16.93;;;11.73;;
20363;SDS011;10340;53.664;9.908;2022-12-18T09:26:10;19.37;;;13.27;;
20363;SDS011;10340;53.664;9.908;2022-12-18T09:28:36;16.73;;;12.17;;
20363;SDS011;10340;53.664;9.908;2022-12-18T09:31:04;15.03;;;12.07;;
20363;SDS011;10340;53.664;9.908;2022-12-18T09:33:35;15.87;;;12.00;;
20363;SDS011;10340;53.664;9.908;2022-12-18T09:36:03;19.17;;;11.77;;
20363;SDS011;10340;53.664;9.908;2022-12-18T09:38:31;16.07;;;11.63;;
20363;SDS011;10340;53.664;9.908;2022-12-18T09:41:01;16.00;;;12.40;;
20363;SDS011;10340;53.664;9.908;2022-12-18T09:43:33;18.37;;;12.80;;
20363;SDS011;10340;53.664;9.908;2022-12-18T09:46:05;19.10;;;12.37;;
20363;SDS011;10340;53.664;9.908;2022-12-18T09:48:35;15.63;;;11.57;;
20363;SDS011;10340;53.664;9.908;2022-12-18T09:51:09;13.87;;;10.43;;
20363;SDS011;10340;53.664;9.908;2022-12-18T09:53:41;14.20;;;11.03;;
20363;SDS011;10340;53.664;9.908;2022-12-18T09:56:16;14.37;;;10.63;;
20363;SDS011;10340;53.664;9.908;2022-12-18T09:58:48;15.77;;;11.63;;
20363;SDS011;10340;53.664;9.908;2022-12-18T10:01:24;15.67;;;11.50;;
20363;SDS011;10340;53.664;9.908;2022-12-18T10:03:52;14.40;;;10.17;;
20363;SDS011;10340;53.664;9.908;2022-12-18T10:06:20;15.50;;;10.50;;
20363;SDS011;10340;53.664;9.908;2022-12-18T10:08:53;15.23;;;10.70;;
20363;SDS011;10340;53.664;9.908;2022-12-18T10:11:30;16.63;;;11.80;;
20363;SDS011;10340;53.664;9.908;2022-12-18T10:14:08;15.73;;;11.53;;
20363;SDS011;10340;53.664;9.908;2022-12-18T10:16:43;19.07;;;11.70;;
20363;SDS011;10340;53.664;9.908;2022-12-18T10:19:33;13.20;;;10.10;;
20363;SDS011;10340;53.664;9.908;2022-12-18T10:22:11;10.90;;;9.73;;
20363;SDS011;10340;53.664;9.908;2022-12-18T10:24:53;14.27;;;9.53;;
20363;SDS011;10340;53.664;9.908;2022-12-18T10:27:27;12.40;;;8.97;;
20363;SDS011;10340;53.664;9.908;2022-12-18T10:29:55;13.00;;;9.70;;
20363;SDS011;10340;53.664;9.908;2022-12-18T10:32:24;11.40;;;9.40;;
20363;SDS011;10340;53.664;9.908;2022-12-18T10:34:53;13.73;;;9.70;;
20363;SDS011;10340;53.664;9.908;2022-12-18T10:37:22;11.50;;;9.60;;
20363;SDS011;10340;53.664;9.908;2022-12-18T10:40:04;12.73;;;9.87;;
20363;SDS011;10340;53.664;9.908;2022-12-18T10:42:36;11.63;;;9.03;;
20363;SDS011;10340;53.664;9.908;2022-12-18T10:45:08;10.50;;;9.40;;
20363;SDS011;10340;53.664;9.908;2022-12-18T10:47:37;12.63;;;9.97;;
20363;SDS011;10340;53.664;9.908;2022-12-18T10:50:15;12.77;;;9.43;;
20363;SDS011;10340;53.664;9.908;2022-12-18T10:52:52;12.67;;;9.17;;
20363;SDS011;10340;53.664;9.908;2022-12-18T10:55:21;11.03;;;8.87;;
20363;SDS011;10340;53.664;9.908;2022-12-18T10:57:50;14.70;;;9.53;;
20363;SDS011;10340;53.664;9.908;2022-12-18T11:00:22;11.77;;;8.63;;
20363;SDS011;10340;53.664;9.908;2022-12-18T11:02:51;10.57;;;8.97;;
20363;SDS011;10340;53.664;9.908;2022-12-18T11:05:23;10.47;;;8.43;;
20363;SDS011;10340;53.664;9.908;2022-12-18T11:07:52;11.97;;;9.07;;
20363;SDS011;10340;53.664;9.908;2022-12-18T11:10:20;10.90;;;8.47;;
20363;SDS011;10340;53.664;9.908;2022-12-18T11:12:50;11.63;;;8.63;;
20363;SDS011;10340;53.664;9.908;2022-12-18T11:15:19;10.80;;;8.63;;
20363;SDS011;10340;53.664;9.908;2022-12-18T11:17:48;9.27;;;8.07;;
20363;SDS011;10340;53.664;9.908;2022-12-18T11:20:21;9.87;;;8.57;;
20363;SDS011;10340;53.664;9.908;2022-12-18T11:22:57;11.00;;;8.30;;
20363;SDS011;10340;53.664;9.908;2022-12-18T11:25:29;8.83;;;7.87;;
20363;SDS011;10340;53.664;9.908;2022-12-18T11:27:58;10.13;;;7.83;;
20363;SDS011;10340;53.664;9.908;2022-12-18T11:30:28;11.73;;;8.13;;
20363;SDS011;10340;53.664;9.908;2022-12-18T11:32:58;9.53;;;8.17;;
20363;SDS011;10340;53.664;9.908;2022-12-18T11:35:32;8.50;;;7.23;;
20363;SDS011;10340;53.664;9.908;2022-12-18T11:38:06;10.57;;;7.90;;
20363;SDS011;10340;53.664;9.908;2022-12-18T11:40:42;9.03;;;7.10;;
20363;SDS011;10340;53.664;9.908;2022-12-18T11:43:14;9.33;;;8.20;;
20363;SDS011;10340;53.664;9.908;2022-12-18T11:45:46;11.77;;;8.77;;
20363;SDS011;10340;53.664;9.908;2022-12-18T11:48:18;11.70;;;8.43;;
20363;SDS011;10340;53.664;9.908;2022-12-18T11:50:50;11.80;;;8.67;;
20363;SDS011;10340;53.664;9.908;2022-12-18T11:53:19;10.90;;;9.27;;
20363;SDS011;10340;53.664;9.908;2022-12-18T11:55:49;12.60;;;9.40;;
20363;SDS011;10340;53.664;9.908;2022-12-18T11:58:32;11.27;;;8.53;;
20363;SDS011;10340;53.664;9.908;2022-12-18T12:01:19;10.83;;;9.00;;
20363;SDS011;10340;53.664;9.908;2022-12-18T12:03:59;10.67;;;8.80;;
20363;SDS011;10340;53.664;9.908;2022-12-18T12:06:41;12.47;;;9.00;;
20363;SDS011;10340;53.664;9.908;2022-12-18T12:09:17;13.23;;;10.33;;
20363;SDS011;10340;53.664;9.908;2022-12-18T12:11:55;11.33;;;9.00;;
20363;SDS011;10340;53.664;9.908;2022-12-18T12:14:45;12.17;;;9.43;;
20363;SDS011;10340;53.664;9.908;2022-12-18T12:17:23;10.73;;;8.80;;
20363;SDS011;10340;53.664;9.908;2022-12-18T12:19:57;12.87;;;9.77;;
20363;SDS011;10340;53.664;9.908;2022-12-18T12:22:35;12.40;;;9.53;;
20363;SDS011;10340;53.664;9.908;2022-12-18T12:25:15;13.23;;;9.07;;
20363;SDS011;10340;53.664;9.908;2022-12-18T12:27:50;12.47;;;10.10;;
20363;SDS011;10340;53.664;9.908;2022-12-18T12:30:28;13.93;;;9.57;;
20363;SDS011;10340;53.664;9.908;2022-12-18T12:33:04;13.63;;;9.90;;
20363;SDS011;10340;53.664;9.908;2022-12-18T12:35:42;12.53;;;9.33;;
20363;SDS011;10340;53.664;9.908;2022-12-18T12:38:15;12.83;;;9.70;;
20363;SDS011;10340;53.664;9.908;2022-12-18T12:40:48;13.00;;;9.60;;
20363;SDS011;10340;53.664;9.908;2022-12-18T12:43:27;13.37;;;10.30;;
20363;SDS011;10340;53.664;9.908;2022-12-18T12:46:05;15.23;;;11.17;;
20363;SDS011;10340;53.664;9.908;2022-12-18T12:48:37;15.27;;;10.30;;
20363;SDS011;10340;53.664;9.908;2022-12-18T12:51:17;15.07;;;10.23;;
20363;SDS011;10340;53.664;9.908;2022-12-18T12:53:46;13.87;;;10.47;;
20363;SDS011;10340;53.664;9.908;2022-12-18T12:56:15;13.77;;;10.60;;
20363;SDS011;10340;53.664;9.908;2022-12-18T12:58:51;15.70;;;10.87;;
20363;SDS011;10340;53.664;9.908;2022-12-18T13:01:27;17.73;;;10.63;;
20363;SDS011;10340;53.664;9.908;2022-12-18T13:04:03;13.23;;;10.27;;
20363;SDS011;10340;53.664;9.908;2022-12-18T13:06:41;15.17;;;10.47;;
20363;SDS011;10340;53.664;9.908;2022-12-18T13:09:12;14.63;;;10.37;;
20363;SDS011;10340;53.664;9.908;2022-12-18T13:11:40;15.40;;;10.37;;
20363;SDS011;10340;53.664;9.908;2022-12-18T13:14:30;13.53;;;9.87;;
20363;SDS011;10340;53.664;9.908;2022-12-18T13:17:15;12.60;;;9.73;;
20363;SDS011;10340;53.664;9.908;2022-12-18T13:20:09;12.53;;;10.13;;
20363;SDS011;10340;53.664;9.908;2022-12-18T13:22:39;14.47;;;9.63;;
20363;SDS011;10340;53.664;9.908;2022-12-18T13:28:05;14.83;;;9.97;;
20363;SDS011;10340;53.664;9.908;2022-12-18T13:30:45;13.67;;;10.37;;
20363;SDS011;10340;53.664;9.908;2022-12-18T13:33:42;13.27;;;9.60;;
20363;SDS011;10340;53.664;9.908;2022-12-18T13:36:14;14.10;;;9.63;;
20363;SDS011;10340;53.664;9.908;2022-12-18T13:39:15;14.30;;;10.13;;
20363;SDS011;10340;53.664;9.908;2022-12-18T13:41:51;15.67;;;11.03;;
20363;SDS011;10340;53.664;9.908;2022-12-18T13:44:29;13.90;;;9.43;;
20363;SDS011;10340;53.664;9.908;2022-12-18T13:46:59;12.90;;;9.40;;
20363;SDS011;10340;53.664;9.908;2022-12-18T13:49:30;15.77;;;10.13;;
20363;SDS011;10340;53.664;9.908;2022-12-18T13:52:03;12.73;;;9.67;;
20363;SDS011;10340;53.664;9.908;2022-12-18T13:54:42;15.43;;;9.83;;
20363;SDS011;10340;53.664;9.908;2022-12-18T13:57:24;13.70;;;10.80;;
20363;SDS011;10340;53.664;9.908;2022-12-18T13:59:53;16.80;;;10.67;;
20363;SDS011;10340;53.664;9.908;2022-12-18T14:02:21;14.60;;;10.47;;
20363;SDS011;10340;53.664;9.908;2022-12-18T14:04:51;16.00;;;10.90;;
20363;SDS011;10340;53.664;9.908;2022-12-18T14:07:19;15.40;;;9.63;;
20363;SDS011;10340;53.664;9.908;2022-12-18T14:09:49;18.10;;;12.03;;
20363;SDS011;10340;53.664;9.908;2022-12-18T14:12:19;18.30;;;12.20;;
20363;SDS011;10340;53.664;9.908;2022-12-18T14:15:06;19.00;;;11.47;;
20363;SDS011;10340;53.664;9.908;2022-12-18T14:17:46;16.93;;;10.97;;
20363;SDS011;10340;53.664;9.908;2022-12-18T14:20:15;17.17;;;11.53;;
20363;SDS011;10340;53.664;9.908;2022-12-18T14:22:43;17.30;;;11.80;;
20363;SDS011;10340;53.664;9.908;2022-12-18T14:25:17;19.13;;;11.77;;
20363;SDS011;10340;53.664;9.908;2022-12-18T14:27:45;16.03;;;11.40;;
20363;SDS011;10340;53.664;9.908;2022-12-18T14:33:01;16.00;;;10.30;;
20363;SDS011;10340;53.664;9.908;2022-12-18T14:35:31;16.70;;;10.77;;
20363;SDS011;10340;53.664;9.908;2022-12-18T14:38:15;15.90;;;10.87;;
20363;SDS011;10340;53.664;9.908;2022-12-18T14:40:47;19.17;;;11.33;;
20363;SDS011;10340;53.664;9.908;2022-12-18T14:43:18;19.47;;;11.67;;
20363;SDS011;10340;53.664;9.908;2022-12-18T14:45:45;17.70;;;11.03;;
20363;SDS011;10340;53.664;9.908;2022-12-18T14:48:14;16.93;;;11.57;;
20363;SDS011;10340;53.664;9.908;2022-12-18T14:50:44;16.97;;;11.37;;
20363;SDS011;10340;53.664;9.908;2022-12-18T14:53:20;17.57;;;11.50;;
20363;SDS011;10340;53.664;9.908;2022-12-18T14:55:53;19.97;;;11.93;;